Time;durP1;ratioP1;P1;durP2;ratioP2;P2;SDS_P1;SDS_P2;PMS_P1;PMS_P2;Temp;Humidity;BMP_temperature;BMP_pressure;BME280_temperature;BME280_humidity;BME280_pressure;Samples;Min_cycle;Max_cycle;Signal;HPM_P1;HPM_P2
2024/01/19 00:00:26;;;;;;;28.00;16.73;;;;;;;;;;5105288;28;20399;-73
2024/01/19 00:02:51;;;;;;;27.88;16.77;;;;;;;;;;5102223;28;20265;-74
2024/01/19 00:05:18;;;;;;;25.70;15.93;;;;;;;;;;5104027;28;20023;-73
2024/01/19 00:07:43;;;;;;;25.67;16.48;;;;;;;;;;5103801;28;20403;-74
2024/01/19 00:10:09;;;;;;;26.38;15.05;;;;;;;;;;5103122;28;20020;-73
2024/01/19 00:12:35;;;;;;;30.25;15.88;;;;;;;;;;5105467;28;20077;-73
2024/01/19 00:15:01;;;;;;;24.98;14.93;;;;;;;;;;5101358;28;20096;-74
2024/01/19 00:17:26;;;;;;;28.95;16.42;;;;;;;;;;5107258;28;20522;-73
2024/01/19 00:19:52;;;;;;;25.40;15.93;;;;;;;;;;5100940;28;20456;-73
2024/01/19 00:22:17;;;;;;;29.60;15.23;;;;;;;;;;5108485;28;20026;-73
2024/01/19 00:24:43;;;;;;;27.50;15.57;;;;;;;;;;5100114;28;20101;-73
2024/01/19 00:27:08;;;;;;;23.88;14.70;;;;;;;;;;5107579;28;20301;-73
2024/01/19 00:29:33;;;;;;;27.48;15.73;;;;;;;;;;5101670;28;20039;-73
2024/01/19 00:31:58;;;;;;;30.57;17.10;;;;;;;;;;5104053;28;20016;-73
2024/01/19 00:34:23;;;;;;;26.80;17.25;;;;;;;;;;5103545;28;20748;-73
2024/01/19 00:36:49;;;;;;;24.70;15.95;;;;;;;;;;5103292;28;20019;-73
2024/01/19 00:39:14;;;;;;;28.63;16.40;;;;;;;;;;5103864;28;20091;-73
2024/01/19 00:41:39;;;;;;;27.52;15.63;;;;;;;;;;5103040;28;20043;-73
2024/01/19 00:44:05;;;;;;;24.08;15.63;;;;;;;;;;5104004;28;20089;-74
2024/01/19 00:46:30;;;;;;;29.65;17.25;;;;;;;;;;5103019;28;20011;-73
2024/01/19 00:48:55;;;;;;;33.65;18.52;;;;;;;;;;5103342;28;20051;-73
2024/01/19 00:51:20;;;;;;;29.47;16.93;;;;;;;;;;5104735;28;20098;-73
2024/01/19 00:53:45;;;;;;;31.63;17.70;;;;;;;;;;5102301;28;20257;-74
2024/01/19 00:56:11;;;;;;;27.52;16.63;;;;;;;;;;5104569;28;20016;-73
2024/01/19 00:58:37;;;;;;;30.55;17.65;;;;;;;;;;5107073;28;20056;-73
2024/01/19 01:01:02;;;;;;;26.75;16.58;;;;;;;;;;5100406;28;20098;-74
2024/01/19 01:03:28;;;;;;;24.50;16.48;;;;;;;;;;5104211;28;20478;-73
2024/01/19 01:05:56;;;;;;;27.75;16.33;;;;;;;;;;5101045;28;20036;-74
2024/01/19 01:08:21;;;;;;;27.23;16.38;;;;;;;;;;5103605;28;20016;-74
2024/01/19 01:10:46;;;;;;;24.90;15.40;;;;;;;;;;5103138;28;20073;-73
2024/01/19 01:13:11;;;;;;;25.23;14.93;;;;;;;;;;5102534;28;20020;-74
2024/01/19 01:15:36;;;;;;;24.02;15.50;;;;;;;;;;5103495;28;20081;-73
2024/01/19 01:18:02;;;;;;;29.33;15.70;;;;;;;;;;5101851;28;20012;-74
2024/01/19 01:20:27;;;;;;;25.25;15.30;;;;;;;;;;5103286;28;20276;-74
2024/01/19 01:22:52;;;;;;;26.23;15.55;;;;;;;;;;5103521;28;20029;-73
2024/01/19 01:25:17;;;;;;;24.88;14.73;;;;;;;;;;5101572;28;20092;-73
2024/01/19 01:27:43;;;;;;;23.80;14.75;;;;;;;;;;5106372;28;20020;-73
2024/01/19 01:30:08;;;;;;;22.33;13.80;;;;;;;;;;5100169;28;20489;-73
2024/01/19 01:32:34;;;;;;;24.15;14.80;;;;;;;;;;5107454;28;20257;-73
2024/01/19 01:34:59;;;;;;;22.75;14.50;;;;;;;;;;5099605;28;20039;-73
2024/01/19 01:37:24;;;;;;;21.13;14.00;;;;;;;;;;5107915;28;20016;-73
2024/01/19 01:39:49;;;;;;;25.42;14.95;;;;;;;;;;5101926;28;20030;-73
2024/01/19 01:42:16;;;;;;;21.57;14.67;;;;;;;;;;5105032;28;20016;-73
2024/01/19 01:44:41;;;;;;;21.90;14.07;;;;;;;;;;5103806;28;20679;-74
2024/01/19 01:47:06;;;;;;;23.20;13.73;;;;;;;;;;5107767;28;20020;-74
2024/01/19 01:49:32;;;;;;;20.55;13.23;;;;;;;;;;5107504;28;20030;-73
2024/01/19 01:51:57;;;;;;;23.05;14.07;;;;;;;;;;5110026;28;20024;-73
2024/01/19 01:54:23;;;;;;;19.83;12.88;;;;;;;;;;5104028;28;20016;-73
2024/01/19 01:56:48;;;;;;;25.83;13.43;;;;;;;;;;5111096;28;20481;-73
2024/01/19 01:59:13;;;;;;;20.83;12.95;;;;;;;;;;5106272;28;20048;-73
2024/01/19 02:01:38;;;;;;;19.52;12.60;;;;;;;;;;5109065;28;20019;-73
2024/01/19 02:04:04;;;;;;;22.55;12.85;;;;;;;;;;5103911;28;20451;-73
2024/01/19 02:06:29;;;;;;;20.75;12.15;;;;;;;;;;5107089;28;20027;-73
2024/01/19 02:08:55;;;;;;;23.02;13.10;;;;;;;;;;5106734;28;20110;-73
2024/01/19 02:11:20;;;;;;;22.00;12.75;;;;;;;;;;5104767;28;20018;-73
2024/01/19 02:13:45;;;;;;;18.83;12.38;;;;;;;;;;5106872;28;20073;-73
2024/01/19 02:16:10;;;;;;;19.38;12.32;;;;;;;;;;5104819;28;20012;-74
2024/01/19 02:18:36;;;;;;;26.90;13.10;;;;;;;;;;5106144;28;20024;-73
2024/01/19 02:21:01;;;;;;;20.17;12.50;;;;;;;;;;5105713;28;20285;-73
2024/01/19 02:23:27;;;;;;;22.85;12.05;;;;;;;;;;5106410;28;20055;-73
2024/01/19 02:25:52;;;;;;;23.00;12.32;;;;;;;;;;5105838;28;20038;-73
2024/01/19 02:28:18;;;;;;;18.05;11.52;;;;;;;;;;5104954;28;20016;-73
2024/01/19 02:30:44;;;;;;;18.85;11.73;;;;;;;;;;5106766;28;20024;-73
2024/01/19 02:33:09;;;;;;;16.50;10.20;;;;;;;;;;5106072;28;20069;-73
2024/01/19 02:35:34;;;;;;;17.48;10.35;;;;;;;;;;5105463;28;20103;-73
2024/01/19 02:38:00;;;;;;;19.02;10.98;;;;;;;;;;5108594;28;20404;-74
2024/01/19 02:40:25;;;;;;;18.63;10.37;;;;;;;;;;5102744;28;20027;-73
2024/01/19 02:42:50;;;;;;;13.90;9.52;;;;;;;;;;5110732;28;20802;-73
2024/01/19 02:45:15;;;;;;;13.75;9.55;;;;;;;;;;5095874;28;20493;-74
2024/01/19 02:47:40;;;;;;;16.85;9.15;;;;;;;;;;5106320;28;20016;-73
2024/01/19 02:50:06;;;;;;;11.63;7.23;;;;;;;;;;5106426;28;20412;-73
2024/01/19 02:52:31;;;;;;;15.68;8.40;;;;;;;;;;5104209;28;20340;-73
2024/01/19 02:54:56;;;;;;;12.05;7.30;;;;;;;;;;5104932;28;20099;-73
2024/01/19 02:57:21;;;;;;;13.53;6.97;;;;;;;;;;5103638;28;20360;-73
2024/01/19 02:59:46;;;;;;;9.98;6.90;;;;;;;;;;5102441;28;20273;-73
2024/01/19 03:02:12;;;;;;;13.13;7.27;;;;;;;;;;5106077;28;20375;-73
2024/01/19 03:04:38;;;;;;;13.70;7.28;;;;;;;;;;5099623;28;20399;-73
2024/01/19 03:07:03;;;;;;;14.35;7.95;;;;;;;;;;5107694;28;20042;-73
2024/01/19 03:09:29;;;;;;;10.45;7.35;;;;;;;;;;5102482;28;20076;-73
2024/01/19 03:11:54;;;;;;;14.30;8.13;;;;;;;;;;5108071;28;20040;-73
2024/01/19 03:14:19;;;;;;;16.27;8.60;;;;;;;;;;5102241;28;20032;-73
2024/01/19 03:16:44;;;;;;;19.40;9.98;;;;;;;;;;5106348;28;20024;-73
2024/01/19 03:19:09;;;;;;;19.90;10.50;;;;;;;;;;5104815;28;20015;-73
2024/01/19 03:21:35;;;;;;;19.83;11.73;;;;;;;;;;5103970;28;20015;-73
2024/01/19 03:24:00;;;;;;;21.30;12.13;;;;;;;;;;5105448;27;20511;-73
2024/01/19 03:26:25;;;;;;;25.90;13.57;;;;;;;;;;5103619;28;20119;-73
2024/01/19 03:28:50;;;;;;;24.77;14.27;;;;;;;;;;5104613;28;20269;-73
2024/01/19 03:31:15;;;;;;;28.90;15.43;;;;;;;;;;5104728;28;20771;-73
2024/01/19 03:33:40;;;;;;;25.10;14.68;;;;;;;;;;5105583;28;20269;-73
2024/01/19 03:36:06;;;;;;;24.73;16.05;;;;;;;;;;5104591;28;20020;-73
2024/01/19 03:38:31;;;;;;;31.55;17.60;;;;;;;;;;5104408;28;20034;-73
2024/01/19 03:40:56;;;;;;;34.03;19.35;;;;;;;;;;5105381;28;20020;-73
2024/01/19 03:43:21;;;;;;;30.02;18.15;;;;;;;;;;5104585;28;20040;-73
2024/01/19 03:45:47;;;;;;;30.52;19.33;;;;;;;;;;5103751;28;20028;-73
2024/01/19 03:48:12;;;;;;;37.72;23.05;;;;;;;;;;5107738;28;20103;-73
2024/01/19 03:50:37;;;;;;;38.47;23.05;;;;;;;;;;5101501;28;20459;-73
2024/01/19 03:53:03;;;;;;;34.92;22.58;;;;;;;;;;5109457;28;20067;-73
2024/01/19 03:55:28;;;;;;;40.38;24.77;;;;;;;;;;5101273;28;20077;-73
2024/01/19 03:57:53;;;;;;;41.40;24.90;;;;;;;;;;5109855;28;20044;-73
2024/01/19 04:00:18;;;;;;;46.10;26.10;;;;;;;;;;5101997;28;20019;-73
2024/01/19 04:02:43;;;;;;;40.88;24.33;;;;;;;;;;5108858;28;20728;-73
2024/01/19 04:05:09;;;;;;;42.30;25.15;;;;;;;;;;5099061;28;20023;-73
2024/01/19 04:07:34;;;;;;;46.70;26.40;;;;;;;;;;5101726;28;20103;-73
2024/01/19 04:09:59;;;;;;;46.33;26.25;;;;;;;;;;5102693;28;20012;-73
2024/01/19 04:12:24;;;;;;;41.65;25.50;;;;;;;;;;5101983;28;20034;-73
2024/01/19 04:14:50;;;;;;;41.47;24.63;;;;;;;;;;5102636;28;20035;-73
2024/01/19 04:17:16;;;;;;;39.13;25.20;;;;;;;;;;5100912;28;20289;-74
2024/01/19 04:19:41;;;;;;;40.08;24.58;;;;;;;;;;5101056;28;20024;-73
2024/01/19 04:22:07;;;;;;;42.97;26.27;;;;;;;;;;5101938;28;20081;-73
2024/01/19 04:24:32;;;;;;;40.03;24.70;;;;;;;;;;5100498;28;20361;-73
2024/01/19 04:26:57;;;;;;;40.85;25.02;;;;;;;;;;5107944;28;20055;-73
2024/01/19 04:29:22;;;;;;;38.85;24.48;;;;;;;;;;5101247;28;20020;-73
2024/01/19 04:31:48;;;;;;;38.78;23.95;;;;;;;;;;5105847;28;20015;-73
2024/01/19 04:34:13;;;;;;;40.47;24.08;;;;;;;;;;5102617;28;20028;-73
2024/01/19 04:36:38;;;;;;;38.13;23.25;;;;;;;;;;5105332;28;20027;-73
2024/01/19 04:39:04;;;;;;;39.20;23.30;;;;;;;;;;5103505;28;20030;-73
2024/01/19 04:41:29;;;;;;;37.13;23.05;;;;;;;;;;5103100;28;20692;-73
2024/01/19 04:43:55;;;;;;;37.38;23.60;;;;;;;;;;5103770;28;20034;-73
2024/01/19 04:46:20;;;;;;;33.75;22.65;;;;;;;;;;5102195;28;20070;-74
2024/01/19 04:48:45;;;;;;;41.30;23.23;;;;;;;;;;5103796;28;20024;-73
2024/01/19 04:51:10;;;;;;;41.87;23.47;;;;;;;;;;5104387;28;20280;-73
2024/01/19 04:53:35;;;;;;;36.25;23.48;;;;;;;;;;5102587;28;20258;-73
2024/01/19 04:56:03;;;;;;;41.90;23.37;;;;;;;;;;5103856;28;20031;-73
2024/01/19 04:58:28;;;;;;;38.13;23.45;;;;;;;;;;5103387;28;20285;-73
2024/01/19 05:00:54;;;;;;;39.17;22.70;;;;;;;;;;5103071;28;20440;-73
2024/01/19 05:03:19;;;;;;;39.03;24.63;;;;;;;;;;5104867;28;20266;-73
2024/01/19 05:05:44;;;;;;;39.92;23.75;;;;;;;;;;5101081;28;20032;-73
2024/01/19 05:08:09;;;;;;;45.92;24.02;;;;;;;;;;5103515;28;20103;-73
2024/01/19 05:10:34;;;;;;;40.10;24.20;;;;;;;;;;5102750;28;20466;-73
2024/01/19 05:13:00;;;;;;;40.33;25.70;;;;;;;;;;5102669;28;20253;-73
2024/01/19 05:15:25;;;;;;;37.30;24.33;;;;;;;;;;5102605;28;20065;-73
2024/01/19 05:17:50;;;;;;;39.55;24.25;;;;;;;;;;5101609;28;20020;-73
2024/01/19 05:20:15;;;;;;;38.58;24.38;;;;;;;;;;5106416;28;20386;-73
2024/01/19 05:22:40;;;;;;;38.10;25.08;;;;;;;;;;5107850;28;20012;-73
2024/01/19 05:25:07;;;;;;;42.92;25.45;;;;;;;;;;5106602;28;20057;-73
2024/01/19 05:27:32;;;;;;;39.35;25.25;;;;;;;;;;5108669;28;20061;-73
2024/01/19 05:29:57;;;;;;;45.63;25.92;;;;;;;;;;5104896;28;20098;-73
2024/01/19 05:32:22;;;;;;;41.70;26.17;;;;;;;;;;5111807;28;20019;-73
2024/01/19 05:34:47;;;;;;;39.30;26.03;;;;;;;;;;5103554;28;20837;-73
2024/01/19 05:37:12;;;;;;;44.97;27.33;;;;;;;;;;5112139;28;20266;-73
2024/01/19 05:39:38;;;;;;;42.88;26.77;;;;;;;;;;5104256;28;20688;-73
2024/01/19 05:42:03;;;;;;;44.63;27.35;;;;;;;;;;5110488;28;20031;-73
2024/01/19 05:44:28;;;;;;;37.55;26.40;;;;;;;;;;5104791;28;20424;-73
2024/01/19 05:46:53;;;;;;;44.20;26.43;;;;;;;;;;5109418;28;20106;-73
2024/01/19 05:49:19;;;;;;;42.53;27.00;;;;;;;;;;5106009;28;20666;-73
2024/01/19 05:51:44;;;;;;;44.83;27.50;;;;;;;;;;5107457;28;20027;-73
2024/01/19 05:54:09;;;;;;;45.22;27.85;;;;;;;;;;5107312;28;20271;-73
2024/01/19 05:56:34;;;;;;;43.95;29.17;;;;;;;;;;5105723;28;20028;-73
2024/01/19 05:58:59;;;;;;;48.47;28.77;;;;;;;;;;5106675;28;20127;-73
2024/01/19 06:01:25;;;;;;;42.90;28.80;;;;;;;;;;5107065;28;20280;-73
2024/01/19 06:03:50;;;;;;;40.80;30.02;;;;;;;;;;5103934;28;20058;-73
2024/01/19 06:06:15;;;;;;;47.42;28.65;;;;;;;;;;5107954;28;20523;-73
2024/01/19 06:08:40;;;;;;;44.33;29.17;;;;;;;;;;5106455;28;20030;-73
2024/01/19 06:11:05;;;;;;;45.65;30.90;;;;;;;;;;5104991;28;20265;-73
2024/01/19 06:13:31;;;;;;;47.40;30.38;;;;;;;;;;5107058;28;20455;-73
2024/01/19 06:15:56;;;;;;;57.22;32.92;;;;;;;;;;5105008;28;20094;-73
2024/01/19 06:18:21;;;;;;;53.60;31.50;;;;;;;;;;5106384;28;20030;-73
2024/01/19 06:20:46;;;;;;;45.88;29.45;;;;;;;;;;5103964;28;20410;-73
2024/01/19 06:23:12;;;;;;;47.22;31.30;;;;;;;;;;5101753;28;20027;-73
2024/01/19 06:25:38;;;;;;;47.70;30.45;;;;;;;;;;5106809;28;20069;-73
2024/01/19 06:28:04;;;;;;;47.63;30.20;;;;;;;;;;5105018;28;20024;-73
2024/01/19 06:30:29;;;;;;;41.72;28.92;;;;;;;;;;5105555;28;20707;-73
2024/01/19 06:32:54;;;;;;;42.13;27.55;;;;;;;;;;5106003;28;20073;-73
2024/01/19 06:35:19;;;;;;;43.40;28.98;;;;;;;;;;5105974;28;20032;-73
2024/01/19 06:37:44;;;;;;;37.90;26.53;;;;;;;;;;5107090;28;20020;-73
2024/01/19 06:40:14;;;;;;;43.23;26.97;;;;;;;;;;5104041;28;20599;-73
2024/01/19 06:42:40;;;;;;;40.03;25.55;;;;;;;;;;5109947;28;20341;-73
2024/01/19 06:45:05;;;;;;;42.03;25.15;;;;;;;;;;5102131;28;20111;-74
2024/01/19 06:47:31;;;;;;;37.60;24.75;;;;;;;;;;5110807;28;20027;-73
2024/01/19 06:49:57;;;;;;;35.10;25.20;;;;;;;;;;5102933;28;20019;-73
2024/01/19 06:52:22;;;;;;;37.40;25.52;;;;;;;;;;5110392;28;20039;-73
2024/01/19 06:54:47;;;;;;;33.47;23.17;;;;;;;;;;5102793;28;20093;-73
2024/01/19 06:57:12;;;;;;;34.70;23.07;;;;;;;;;;5109278;28;20624;-73
2024/01/19 06:59:37;;;;;;;37.83;23.47;;;;;;;;;;5103541;28;20303;-73
2024/01/19 07:02:04;;;;;;;33.37;22.23;;;;;;;;;;5107516;28;20769;-73
2024/01/19 07:04:29;;;;;;;35.50;22.52;;;;;;;;;;5098219;28;20741;-73
2024/01/19 07:06:56;;;;;;;33.60;22.00;;;;;;;;;;5101561;28;20055;-73
2024/01/19 07:09:21;;;;;;;34.50;22.30;;;;;;;;;;5102969;28;20020;-73
2024/01/19 07:11:46;;;;;;;29.67;22.50;;;;;;;;;;5109059;28;20115;-73
2024/01/19 07:14:11;;;;;;;35.13;21.80;;;;;;;;;;5101923;28;20274;-73
2024/01/19 07:16:40;;;;;;;34.13;22.48;;;;;;;;;;5108720;28;20289;-73
2024/01/19 07:19:05;;;;;;;36.05;24.48;;;;;;;;;;5102307;28;20022;-73
2024/01/19 07:21:30;;;;;;;35.17;22.40;;;;;;;;;;5106613;28;20019;-73
2024/01/19 07:23:55;;;;;;;33.63;22.33;;;;;;;;;;5104571;28;20319;-73
2024/01/19 07:26:21;;;;;;;33.25;23.38;;;;;;;;;;5105332;28;20324;-73
2024/01/19 07:28:46;;;;;;;35.08;22.88;;;;;;;;;;5104408;28;20545;-73
2024/01/19 07:31:11;;;;;;;32.37;22.10;;;;;;;;;;5104539;28;20111;-73
2024/01/19 07:33:36;;;;;;;34.05;22.75;;;;;;;;;;5104903;28;20270;-74
2024/01/19 07:36:02;;;;;;;33.47;23.60;;;;;;;;;;5104015;28;20470;-73
2024/01/19 07:38:27;;;;;;;32.42;21.70;;;;;;;;;;5105646;28;20049;-73
2024/01/19 07:40:52;;;;;;;30.27;22.17;;;;;;;;;;5104002;28;20028;-73
2024/01/19 07:43:17;;;;;;;34.22;21.25;;;;;;;;;;5103764;28;20023;-73
2024/01/19 07:45:43;;;;;;;29.15;21.77;;;;;;;;;;5104857;28;20043;-73
2024/01/19 07:48:08;;;;;;;33.87;20.30;;;;;;;;;;5104570;28;20459;-74
2024/01/19 07:50:33;;;;;;;31.92;22.20;;;;;;;;;;5104541;28;20320;-73
2024/01/19 07:52:58;;;;;;;30.50;21.80;;;;;;;;;;5107050;28;20016;-73
2024/01/19 07:55:23;;;;;;;35.33;21.45;;;;;;;;;;5101304;28;20278;-73
2024/01/19 07:57:48;;;;;;;35.87;22.93;;;;;;;;;;5109052;28;20040;-73
2024/01/19 08:00:14;;;;;;;29.55;22.00;;;;;;;;;;5101637;28;20270;-73
2024/01/19 08:02:40;;;;;;;35.63;23.30;;;;;;;;;;5109250;28;20062;-73
2024/01/19 08:05:05;;;;;;;39.25;22.90;;;;;;;;;;5098744;28;20471;-73
2024/01/19 08:07:32;;;;;;;43.72;23.50;;;;;;;;;;5103286;28;20031;-73
2024/01/19 08:09:58;;;;;;;35.38;22.20;;;;;;;;;;5096702;28;20031;-73
2024/01/19 08:12:23;;;;;;;36.03;22.52;;;;;;;;;;5104833;28;20016;-73
2024/01/19 08:14:48;;;;;;;39.50;23.93;;;;;;;;;;5102400;28;20055;-73
2024/01/19 08:17:13;;;;;;;36.37;22.80;;;;;;;;;;5106232;28;20270;-73
2024/01/19 08:19:38;;;;;;;33.87;23.70;;;;;;;;;;5101644;28;20278;-73
2024/01/19 08:22:03;;;;;;;39.17;25.13;;;;;;;;;;5108724;28;20261;-73
2024/01/19 08:24:29;;;;;;;38.53;24.60;;;;;;;;;;5100522;28;20262;-73
2024/01/19 08:26:54;;;;;;;36.13;25.03;;;;;;;;;;5108421;28;20167;-73
2024/01/19 08:29:19;;;;;;;38.05;25.98;;;;;;;;;;5101088;28;20293;-73
2024/01/19 08:31:44;;;;;;;40.00;25.10;;;;;;;;;;5106148;28;20027;-73
2024/01/19 08:34:13;;;;;;;41.33;26.20;;;;;;;;;;5102428;28;20270;-73
2024/01/19 08:36:41;;;;;;;40.50;25.67;;;;;;;;;;5105935;28;20039;-73
2024/01/19 08:39:09;;;;;;;36.28;24.83;;;;;;;;;;5102857;28;20479;-73
2024/01/19 08:41:43;;;;;;;37.58;24.75;;;;;;;;;;5104552;28;20505;-73
2024/01/19 08:44:08;;;;;;;36.15;26.65;;;;;;;;;;5103600;28;20123;-73
2024/01/19 08:46:34;;;;;;;41.95;26.70;;;;;;;;;;5104038;28;20118;-73
2024/01/19 08:49:00;;;;;;;38.17;25.60;;;;;;;;;;5104351;28;20038;-73
2024/01/19 08:51:28;;;;;;;35.33;25.20;;;;;;;;;;5103213;28;20098;-73
2024/01/19 08:53:53;;;;;;;41.05;27.05;;;;;;;;;;5103883;28;20035;-73
2024/01/19 08:56:20;;;;;;;42.20;26.43;;;;;;;;;;5103835;28;20425;-73
2024/01/19 08:58:45;;;;;;;47.60;27.65;;;;;;;;;;5099940;28;20281;-73
2024/01/19 09:01:15;;;;;;;42.17;26.50;;;;;;;;;;5104279;28;20098;-73
2024/01/19 09:03:40;;;;;;;40.65;26.95;;;;;;;;;;5100889;28;20254;-73
2024/01/19 09:06:06;;;;;;;41.00;27.33;;;;;;;;;;5103541;28;20027;-74
2024/01/19 09:08:31;;;;;;;44.50;26.65;;;;;;;;;;5104123;28;20273;-73
2024/01/19 09:10:56;;;;;;;43.57;29.13;;;;;;;;;;5101990;28;20023;-73
2024/01/19 09:13:21;;;;;;;48.38;28.95;;;;;;;;;;5103617;28;20262;-73
2024/01/19 09:15:47;;;;;;;42.70;27.85;;;;;;;;;;5102428;28;20027;-73
2024/01/19 09:18:12;;;;;;;43.22;28.15;;;;;;;;;;5104265;28;20012;-73
2024/01/19 09:20:37;;;;;;;49.25;28.67;;;;;;;;;;5102815;28;20046;-73
2024/01/19 09:23:02;;;;;;;43.08;27.23;;;;;;;;;;5102606;28;20012;-74
2024/01/19 09:25:28;;;;;;;43.63;29.08;;;;;;;;;;5103620;28;20050;-73
2024/01/19 09:27:53;;;;;;;44.38;28.25;;;;;;;;;;5101791;28;20008;-74
2024/01/19 09:30:19;;;;;;;43.58;29.10;;;;;;;;;;5103910;28;20028;-74
2024/01/19 09:32:44;;;;;;;47.38;29.63;;;;;;;;;;5104669;28;20108;-73
2024/01/19 09:35:09;;;;;;;53.15;31.67;;;;;;;;;;5101416;28;20403;-73
2024/01/19 09:37:34;;;;;;;50.10;32.53;;;;;;;;;;5106873;28;20016;-74
2024/01/19 09:39:59;;;;;;;60.03;35.13;;;;;;;;;;5100295;28;20611;-73
2024/01/19 09:42:27;;;;;;;58.57;38.23;;;;;;;;;;5108033;28;20269;-73
2024/01/19 09:45:00;;;;;;;74.72;45.45;;;;;;;;;;5100164;28;20365;-74
2024/01/19 09:47:30;;;;;;;77.93;46.47;;;;;;;;;;5108191;28;20023;-73
2024/01/19 09:50:03;;;;;;;79.20;47.53;;;;;;;;;;5100185;28;20019;-73
2024/01/19 09:52:42;;;;;;;73.60;42.97;;;;;;;;;;5109079;28;20378;-73
2024/01/19 09:55:11;;;;;;;71.05;43.67;;;;;;;;;;5099683;28;20051;-74
2024/01/19 09:57:42;;;;;;;76.43;41.83;;;;;;;;;;5108431;28;20513;-74
2024/01/19 10:00:07;;;;;;;67.82;42.83;;;;;;;;;;5100317;28;20059;-73
2024/01/19 10:02:33;;;;;;;66.68;40.40;;;;;;;;;;5100884;28;20523;-74
2024/01/19 10:04:58;;;;;;;64.32;39.47;;;;;;;;;;5102896;28;20383;-74
2024/01/19 10:07:24;;;;;;;62.65;39.85;;;;;;;;;;5106303;28;20020;-74
2024/01/19 10:09:50;;;;;;;60.60;37.42;;;;;;;;;;5105620;28;20063;-74
2024/01/19 10:12:17;;;;;;;62.25;37.58;;;;;;;;;;5108371;27;20036;-74
2024/01/19 10:14:42;;;;;;;62.15;36.58;;;;;;;;;;5104308;28;20016;-73
2024/01/19 10:17:08;;;;;;;61.90;37.30;;;;;;;;;;5109832;28;20073;-74
2024/01/19 10:19:33;;;;;;;60.42;37.20;;;;;;;;;;5103745;28;20614;-74
2024/01/19 10:22:18;;;;;;;61.08;36.88;;;;;;;;;;5110992;28;20027;-74
2024/01/19 10:24:57;;;;;;;54.10;34.10;;;;;;;;;;5103302;28;20040;-74
2024/01/19 10:27:35;;;;;;;56.72;34.45;;;;;;;;;;5103833;28;20016;-74
2024/01/19 10:30:07;;;;;;;59.13;37.17;;;;;;;;;;5103707;28;20018;-74
2024/01/19 10:32:32;;;;;;;57.85;36.53;;;;;;;;;;5109210;28;20024;-74
2024/01/19 10:35:05;;;;;;;59.10;36.50;;;;;;;;;;5103281;28;20019;-74
2024/01/19 10:37:30;;;;;;;62.95;37.00;;;;;;;;;;5109719;28;20024;-74
2024/01/19 10:39:56;;;;;;;54.80;35.80;;;;;;;;;;5103105;28;20011;-74
2024/01/19 10:42:21;;;;;;;57.60;37.20;;;;;;;;;;5111706;28;20636;-74
2024/01/19 10:44:46;;;;;;;63.08;37.95;;;;;;;;;;5102033;28;20356;-74
2024/01/19 10:47:12;;;;;;;60.17;37.23;;;;;;;;;;5111663;28;20047;-74
2024/01/19 10:49:38;;;;;;;57.85;36.47;;;;;;;;;;5103216;28;20349;-74
2024/01/19 10:52:03;;;;;;;56.20;35.90;;;;;;;;;;5109130;28;20429;-74
2024/01/19 10:54:28;;;;;;;60.13;37.45;;;;;;;;;;5104096;28;20265;-74
2024/01/19 10:57:04;;;;;;;61.35;36.83;;;;;;;;;;5102551;28;20065;-74
2024/01/19 10:59:30;;;;;;;60.78;35.55;;;;;;;;;;5107879;28;20119;-74
2024/01/19 11:01:59;;;;;;;60.38;38.50;;;;;;;;;;5102793;28;20102;-74
2024/01/19 11:04:25;;;;;;;60.72;38.00;;;;;;;;;;5108433;28;20023;-74
2024/01/19 11:06:50;;;;;;;65.70;38.10;;;;;;;;;;5109279;28;20091;-74
2024/01/19 11:09:15;;;;;;;58.25;36.92;;;;;;;;;;5102767;28;20388;-74
2024/01/19 11:11:49;;;;;;;61.78;37.05;;;;;;;;;;5109573;28;20106;-74
2024/01/19 11:14:17;;;;;;;60.42;37.30;;;;;;;;;;5102832;28;20115;-74
2024/01/19 11:16:45;;;;;;;56.28;36.45;;;;;;;;;;5109794;28;20120;-74
2024/01/19 11:19:12;;;;;;;55.80;35.25;;;;;;;;;;5101982;28;20024;-74
2024/01/19 11:21:39;;;;;;;50.42;33.53;;;;;;;;;;5110475;28;20080;-74
2024/01/19 11:24:04;;;;;;;55.03;37.38;;;;;;;;;;5100032;28;20031;-74
2024/01/19 11:26:34;;;;;;;54.03;34.22;;;;;;;;;;5107872;28;20039;-74
2024/01/19 11:28:59;;;;;;;54.38;35.60;;;;;;;;;;5104119;28;20038;-74
2024/01/19 11:31:25;;;;;;;54.80;34.42;;;;;;;;;;5106379;28;20455;-74
2024/01/19 11:33:53;;;;;;;53.25;34.80;;;;;;;;;;5104791;28;20360;-74
2024/01/19 11:36:38;;;;;;;54.20;34.78;;;;;;;;;;5104762;28;20032;-74
2024/01/19 11:39:05;;;;;;;51.92;34.88;;;;;;;;;;5105041;28;20020;-74
2024/01/19 11:41:30;;;;;;;55.80;34.65;;;;;;;;;;5104960;28;20024;-74
2024/01/19 11:43:55;;;;;;;52.45;32.10;;;;;;;;;;5108448;28;20015;-74
2024/01/19 11:46:40;;;;;;;56.03;32.77;;;;;;;;;;5105090;28;20118;-74
2024/01/19 11:49:05;;;;;;;48.40;32.35;;;;;;;;;;5104554;28;20332;-74
2024/01/19 11:51:34;;;;;;;54.73;31.77;;;;;;;;;;5102554;28;20048;-74
2024/01/19 11:54:00;;;;;;;45.65;30.50;;;;;;;;;;5104587;28;20261;-74
2024/01/19 11:56:25;;;;;;;45.90;29.48;;;;;;;;;;5103917;28;20012;-73
2024/01/19 11:58:51;;;;;;;47.95;31.83;;;;;;;;;;5103180;28;20042;-74
2024/01/19 12:01:16;;;;;;;48.88;31.30;;;;;;;;;;5104595;28;20077;-74
2024/01/19 12:03:42;;;;;;;45.63;30.15;;;;;;;;;;5101025;28;20040;-74
2024/01/19 12:06:07;;;;;;;45.35;30.95;;;;;;;;;;5105979;28;20489;-74
2024/01/19 12:08:32;;;;;;;45.40;30.23;;;;;;;;;;5103922;28;20011;-74
2024/01/19 12:11:01;;;;;;;40.83;30.50;;;;;;;;;;5103629;28;20489;-74
2024/01/19 12:13:26;;;;;;;53.50;30.10;;;;;;;;;;5104979;28;20084;-74
2024/01/19 12:15:52;;;;;;;43.75;30.55;;;;;;;;;;5102704;28;20016;-74
2024/01/19 12:18:17;;;;;;;47.63;29.52;;;;;;;;;;5104636;28;20068;-74
2024/01/19 12:20:45;;;;;;;46.15;29.73;;;;;;;;;;5103350;28;20039;-74
2024/01/19 12:23:12;;;;;;;46.45;30.65;;;;;;;;;;5103870;28;20095;-74
2024/01/19 12:25:38;;;;;;;50.70;31.45;;;;;;;;;;5104690;28;20039;-74
2024/01/19 12:28:04;;;;;;;45.00;30.98;;;;;;;;;;5103350;27;20023;-74
2024/01/19 12:30:33;;;;;;;51.83;31.88;;;;;;;;;;5103723;28;20056;-74
2024/01/19 12:32:58;;;;;;;46.60;29.00;;;;;;;;;;5103357;28;20019;-74
2024/01/19 12:35:24;;;;;;;43.42;28.73;;;;;;;;;;5104614;28;20018;-74
2024/01/19 12:37:49;;;;;;;43.95;28.00;;;;;;;;;;5104563;28;20016;-74
2024/01/19 12:40:15;;;;;;;43.88;26.85;;;;;;;;;;5108843;28;20106;-74
2024/01/19 12:42:44;;;;;;;42.83;29.23;;;;;;;;;;5107715;28;20098;-74
2024/01/19 12:45:12;;;;;;;39.92;26.55;;;;;;;;;;5100593;28;20455;-75
2024/01/19 12:47:45;;;;;;;37.33;25.92;;;;;;;;;;5104063;28;20054;-75
2024/01/19 12:50:10;;;;;;;31.47;22.33;;;;;;;;;;5100741;28;20020;-75
2024/01/19 12:52:36;;;;;;;35.58;22.50;;;;;;;;;;5095792;28;20023;-75
2024/01/19 12:55:01;;;;;;;32.88;21.65;;;;;;;;;;5103046;28;20027;-75
2024/01/19 12:57:26;;;;;;;30.25;19.65;;;;;;;;;;5101102;28;20122;-75
2024/01/19 13:00:07;;;;;;;27.57;18.37;;;;;;;;;;5105573;28;20024;-75
2024/01/19 13:02:32;;;;;;;24.30;18.02;;;;;;;;;;5102141;28;20271;-75
2024/01/19 13:04:57;;;;;;;28.57;19.03;;;;;;;;;;5102276;28;20505;-75
2024/01/19 13:07:22;;;;;;;23.77;19.02;;;;;;;;;;5103631;28;20278;-75
2024/01/19 13:09:59;;;;;;;24.05;17.13;;;;;;;;;;5103030;28;20031;-75
2024/01/19 13:12:24;;;;;;;27.65;17.77;;;;;;;;;;5103408;28;20371;-75
2024/01/19 13:14:49;;;;;;;24.33;17.10;;;;;;;;;;5102132;28;20027;-75
2024/01/19 13:17:22;;;;;;;23.47;17.37;;;;;;;;;;5106740;28;20357;-75
2024/01/19 13:19:47;;;;;;;26.25;18.23;;;;;;;;;;5100987;28;20273;-75
2024/01/19 13:22:13;;;;;;;24.45;16.08;;;;;;;;;;5107995;28;20012;-75
2024/01/19 13:24:38;;;;;;;24.65;16.25;;;;;;;;;;5100540;28;20020;-75
2024/01/19 13:27:03;;;;;;;26.03;16.17;;;;;;;;;;5107702;28;20061;-75
2024/01/19 13:29:29;;;;;;;26.90;16.83;;;;;;;;;;5100615;28;20613;-75
2024/01/19 13:31:55;;;;;;;22.27;15.50;;;;;;;;;;5108307;28;20493;-75
2024/01/19 13:34:26;;;;;;;28.90;17.55;;;;;;;;;;5102397;28;20034;-75
2024/01/19 13:36:51;;;;;;;27.60;17.38;;;;;;;;;;5107799;28;20016;-75
2024/01/19 13:39:16;;;;;;;22.85;16.50;;;;;;;;;;5100626;28;20024;-75
2024/01/19 13:41:42;;;;;;;26.20;15.83;;;;;;;;;;5109577;28;20429;-75
2024/01/19 13:44:07;;;;;;;23.58;15.60;;;;;;;;;;5107256;27;20281;-75
2024/01/19 13:46:32;;;;;;;25.35;17.75;;;;;;;;;;5107013;28;20023;-75
2024/01/19 13:48:58;;;;;;;25.57;17.50;;;;;;;;;;5107437;28;20023;-75
2024/01/19 13:51:23;;;;;;;26.55;16.50;;;;;;;;;;5102886;28;20273;-75
2024/01/19 13:53:48;;;;;;;29.83;16.80;;;;;;;;;;5105734;28;20047;-75
2024/01/19 13:56:13;;;;;;;29.08;17.73;;;;;;;;;;5107639;28;20333;-75
2024/01/19 13:58:39;;;;;;;25.13;16.97;;;;;;;;;;5112374;28;20096;-75
2024/01/19 14:01:05;;;;;;;25.90;16.55;;;;;;;;;;5106629;28;20621;-75
2024/01/19 14:03:30;;;;;;;70.18;52.97;;;;;;;;;;5104671;28;20146;-75
2024/01/19 14:05:55;;;;;;;58.13;45.40;;;;;;;;;;5107446;28;20042;-75
2024/01/19 14:08:20;;;;;;;26.90;19.55;;;;;;;;;;5106458;28;20269;-75
2024/01/19 14:10:46;;;;;;;28.65;20.63;;;;;;;;;;5106177;28;20027;-75